sensor_id;sensor_type;location;lat;lon;timestamp;P1;durP1;ratioP1;P2;durP2;ratioP2
26774;SDS011;14362;51.902;7.626;2023-03-01T00:03:21;13.30;;;8.23;;
26774;SDS011;14362;51.902;7.626;2023-03-01T00:07:24;13.05;;;8.52;;
26774;SDS011;14362;51.902;7.626;2023-03-01T00:11:26;13.60;;;8.35;;
26774;SDS011;14362;51.902;7.626;2023-03-01T00:15:28;15.75;;;9.75;;
26774;SDS011;14362;51.902;7.626;2023-03-01T00:19:30;13.20;;;8.82;;
26774;SDS011;14362;51.902;7.626;2023-03-01T00:23:34;12.00;;;7.55;;
26774;SDS011;14362;51.902;7.626;2023-03-01T00:27:36;11.77;;;7.70;;
26774;SDS011;14362;51.902;7.626;2023-03-01T00:31:38;11.98;;;8.00;;
26774;SDS011;14362;51.902;7.626;2023-03-01T00:35:39;13.80;;;7.50;;
26774;SDS011;14362;51.902;7.626;2023-03-01T00:39:42;11.55;;;8.02;;
26774;SDS011;14362;51.902;7.626;2023-03-01T00:43:44;12.93;;;7.82;;
26774;SDS011;14362;51.902;7.626;2023-03-01T00:47:46;13.00;;;8.18;;
26774;SDS011;14362;51.902;7.626;2023-03-01T00:51:48;13.60;;;7.40;;
26774;SDS011;14362;51.902;7.626;2023-03-01T00:55:51;13.25;;;7.93;;
26774;SDS011;14362;51.902;7.626;2023-03-01T00:59:52;11.48;;;7.15;;
26774;SDS011;14362;51.902;7.626;2023-03-01T01:03:54;11.88;;;8.27;;
26774;SDS011;14362;51.902;7.626;2023-03-01T01:07:57;14.40;;;8.82;;
26774;SDS011;14362;51.902;7.626;2023-03-01T01:12:00;13.75;;;8.57;;
26774;SDS011;14362;51.902;7.626;2023-03-01T01:16:02;16.77;;;8.82;;
26774;SDS011;14362;51.902;7.626;2023-03-01T01:20:04;13.10;;;8.60;;
26774;SDS011;14362;51.902;7.626;2023-03-01T01:24:06;14.20;;;8.90;;
26774;SDS011;14362;51.902;7.626;2023-03-01T01:28:09;14.95;;;8.82;;
26774;SDS011;14362;51.902;7.626;2023-03-01T01:32:11;14.27;;;8.88;;
26774;SDS011;14362;51.902;7.626;2023-03-01T01:36:12;17.30;;;8.70;;
26774;SDS011;14362;51.902;7.626;2023-03-01T01:40:14;19.95;;;10.18;;
26774;SDS011;14362;51.902;7.626;2023-03-01T01:44:19;22.17;;;11.18;;
26774;SDS011;14362;51.902;7.626;2023-03-01T01:48:24;16.92;;;10.80;;
26774;SDS011;14362;51.902;7.626;2023-03-01T01:52:40;16.77;;;10.45;;
26774;SDS011;14362;51.902;7.626;2023-03-01T01:56:42;15.55;;;10.30;;
26774;SDS011;14362;51.902;7.626;2023-03-01T02:00:50;17.17;;;10.10;;
26774;SDS011;14362;51.902;7.626;2023-03-01T02:04:52;16.27;;;10.52;;
26774;SDS011;14362;51.902;7.626;2023-03-01T02:09:04;16.20;;;9.35;;
26774;SDS011;14362;51.902;7.626;2023-03-01T02:13:12;15.05;;;10.45;;
26774;SDS011;14362;51.902;7.626;2023-03-01T02:17:15;18.23;;;10.23;;
26774;SDS011;14362;51.902;7.626;2023-03-01T02:21:23;13.25;;;9.80;;
26774;SDS011;14362;51.902;7.626;2023-03-01T02:25:37;13.18;;;9.77;;
26774;SDS011;14362;51.902;7.626;2023-03-01T02:29:47;17.48;;;10.02;;
26774;SDS011;14362;51.902;7.626;2023-03-01T02:33:49;19.90;;;10.18;;
26774;SDS011;14362;51.902;7.626;2023-03-01T02:37:52;18.83;;;10.60;;
26774;SDS011;14362;51.902;7.626;2023-03-01T02:41:57;20.02;;;11.40;;
26774;SDS011;14362;51.902;7.626;2023-03-01T02:46:03;15.38;;;9.70;;
26774;SDS011;14362;51.902;7.626;2023-03-01T02:50:11;19.67;;;11.43;;
26774;SDS011;14362;51.902;7.626;2023-03-01T02:54:24;17.40;;;9.07;;
26774;SDS011;14362;51.902;7.626;2023-03-01T03:02:31;19.38;;;10.43;;
26774;SDS011;14362;51.902;7.626;2023-03-01T03:06:36;18.38;;;10.30;;
26774;SDS011;14362;51.902;7.626;2023-03-01T03:10:39;17.65;;;10.95;;
26774;SDS011;14362;51.902;7.626;2023-03-01T03:14:42;16.88;;;9.98;;
26774;SDS011;14362;51.902;7.626;2023-03-01T03:18:45;13.63;;;10.05;;
26774;SDS011;14362;51.902;7.626;2023-03-01T03:22:47;15.80;;;10.27;;
26774;SDS011;14362;51.902;7.626;2023-03-01T03:26:50;15.40;;;9.68;;
26774;SDS011;14362;51.902;7.626;2023-03-01T03:30:51;16.63;;;9.88;;
26774;SDS011;14362;51.902;7.626;2023-03-01T03:34:54;15.50;;;9.55;;
26774;SDS011;14362;51.902;7.626;2023-03-01T03:38:55;14.63;;;9.27;;
26774;SDS011;14362;51.902;7.626;2023-03-01T03:42:57;16.33;;;9.18;;
26774;SDS011;14362;51.902;7.626;2023-03-01T03:46:58;15.90;;;9.18;;
26774;SDS011;14362;51.902;7.626;2023-03-01T03:51:01;18.45;;;9.95;;
26774;SDS011;14362;51.902;7.626;2023-03-01T03:55:05;14.70;;;9.32;;
26774;SDS011;14362;51.902;7.626;2023-03-01T03:59:10;18.17;;;10.38;;
26774;SDS011;14362;51.902;7.626;2023-03-01T04:03:12;15.27;;;10.70;;
26774;SDS011;14362;51.902;7.626;2023-03-01T04:07:16;18.60;;;10.25;;
26774;SDS011;14362;51.902;7.626;2023-03-01T04:11:18;16.80;;;11.23;;
26774;SDS011;14362;51.902;7.626;2023-03-01T04:19:35;20.75;;;11.57;;
26774;SDS011;14362;51.902;7.626;2023-03-01T04:23:38;20.00;;;12.02;;
26774;SDS011;14362;51.902;7.626;2023-03-01T04:27:40;15.40;;;10.40;;
26774;SDS011;14362;51.902;7.626;2023-03-01T04:31:42;15.50;;;10.52;;
26774;SDS011;14362;51.902;7.626;2023-03-01T04:35:43;18.30;;;11.77;;
26774;SDS011;14362;51.902;7.626;2023-03-01T04:39:46;14.65;;;9.55;;
26774;SDS011;14362;51.902;7.626;2023-03-01T04:43:48;15.98;;;9.30;;
26774;SDS011;14362;51.902;7.626;2023-03-01T04:47:49;15.50;;;9.55;;
26774;SDS011;14362;51.902;7.626;2023-03-01T04:51:52;15.38;;;8.88;;
26774;SDS011;14362;51.902;7.626;2023-03-01T04:55:55;17.23;;;8.80;;
26774;SDS011;14362;51.902;7.626;2023-03-01T04:59:57;12.13;;;8.27;;
26774;SDS011;14362;51.902;7.626;2023-03-01T05:03:58;16.08;;;9.10;;
26774;SDS011;14362;51.902;7.626;2023-03-01T05:08:06;15.15;;;9.65;;
26774;SDS011;14362;51.902;7.626;2023-03-01T05:12:10;16.60;;;8.68;;
26774;SDS011;14362;51.902;7.626;2023-03-01T05:16:12;15.68;;;8.73;;
26774;SDS011;14362;51.902;7.626;2023-03-01T05:20:14;14.80;;;9.98;;
26774;SDS011;14362;51.902;7.626;2023-03-01T05:24:15;14.20;;;9.55;;
26774;SDS011;14362;51.902;7.626;2023-03-01T05:28:18;15.38;;;10.10;;
26774;SDS011;14362;51.902;7.626;2023-03-01T05:32:20;16.00;;;9.32;;
26774;SDS011;14362;51.902;7.626;2023-03-01T05:36:22;17.52;;;10.38;;
26774;SDS011;14362;51.902;7.626;2023-03-01T05:40:24;16.05;;;9.73;;
26774;SDS011;14362;51.902;7.626;2023-03-01T05:44:28;16.23;;;10.07;;
26774;SDS011;14362;51.902;7.626;2023-03-01T05:48:30;17.20;;;11.00;;
26774;SDS011;14362;51.902;7.626;2023-03-01T05:52:31;19.02;;;11.35;;
26774;SDS011;14362;51.902;7.626;2023-03-01T05:56:33;14.27;;;9.75;;
26774;SDS011;14362;51.902;7.626;2023-03-01T06:00:36;17.15;;;10.18;;
26774;SDS011;14362;51.902;7.626;2023-03-01T06:04:39;17.33;;;10.23;;
26774;SDS011;14362;51.902;7.626;2023-03-01T06:08:40;18.33;;;9.48;;
26774;SDS011;14362;51.902;7.626;2023-03-01T06:12:42;14.65;;;9.57;;
26774;SDS011;14362;51.902;7.626;2023-03-01T06:16:45;15.07;;;9.65;;
26774;SDS011;14362;51.902;7.626;2023-03-01T06:20:52;18.20;;;10.55;;
26774;SDS011;14362;51.902;7.626;2023-03-01T06:24:54;16.35;;;10.32;;
26774;SDS011;14362;51.902;7.626;2023-03-01T06:28:56;15.45;;;10.63;;
26774;SDS011;14362;51.902;7.626;2023-03-01T06:32:58;18.08;;;10.85;;
26774;SDS011;14362;51.902;7.626;2023-03-01T06:37:01;13.88;;;9.80;;
26774;SDS011;14362;51.902;7.626;2023-03-01T06:41:05;18.38;;;10.43;;
26774;SDS011;14362;51.902;7.626;2023-03-01T06:45:07;17.45;;;10.07;;
26774;SDS011;14362;51.902;7.626;2023-03-01T06:49:11;14.85;;;8.80;;
26774;SDS011;14362;51.902;7.626;2023-03-01T06:53:12;14.30;;;9.15;;
26774;SDS011;14362;51.902;7.626;2023-03-01T06:57:14;16.10;;;9.25;;
26774;SDS011;14362;51.902;7.626;2023-03-01T07:01:15;15.18;;;8.90;;
26774;SDS011;14362;51.902;7.626;2023-03-01T07:05:18;17.88;;;8.73;;
26774;SDS011;14362;51.902;7.626;2023-03-01T07:09:20;20.35;;;10.10;;
26774;SDS011;14362;51.902;7.626;2023-03-01T07:13:22;18.60;;;8.43;;
26774;SDS011;14362;51.902;7.626;2023-03-01T07:17:23;17.15;;;9.20;;
26774;SDS011;14362;51.902;7.626;2023-03-01T07:21:26;15.07;;;8.50;;
26774;SDS011;14362;51.902;7.626;2023-03-01T07:25:27;15.30;;;8.50;;
26774;SDS011;14362;51.902;7.626;2023-03-01T07:29:29;16.08;;;8.57;;
26774;SDS011;14362;51.902;7.626;2023-03-01T07:33:30;18.40;;;8.48;;
26774;SDS011;14362;51.902;7.626;2023-03-01T07:37:33;14.85;;;7.90;;
26774;SDS011;14362;51.902;7.626;2023-03-01T07:41:35;14.80;;;8.60;;
26774;SDS011;14362;51.902;7.626;2023-03-01T07:45:37;12.77;;;7.57;;
26774;SDS011;14362;51.902;7.626;2023-03-01T07:49:38;13.55;;;8.38;;
26774;SDS011;14362;51.902;7.626;2023-03-01T07:53:41;17.13;;;8.90;;
26774;SDS011;14362;51.902;7.626;2023-03-01T07:57:42;11.60;;;8.23;;
26774;SDS011;14362;51.902;7.626;2023-03-01T08:01:44;11.77;;;7.50;;
26774;SDS011;14362;51.902;7.626;2023-03-01T08:05:45;10.55;;;6.72;;
26774;SDS011;14362;51.902;7.626;2023-03-01T08:09:48;12.75;;;7.28;;
26774;SDS011;14362;51.902;7.626;2023-03-01T08:13:50;12.27;;;7.63;;
26774;SDS011;14362;51.902;7.626;2023-03-01T08:17:51;14.10;;;7.55;;
26774;SDS011;14362;51.902;7.626;2023-03-01T08:21:52;11.25;;;7.03;;
26774;SDS011;14362;51.902;7.626;2023-03-01T08:25:55;12.70;;;7.20;;
26774;SDS011;14362;51.902;7.626;2023-03-01T08:30:05;11.70;;;7.57;;
26774;SDS011;14362;51.902;7.626;2023-03-01T08:34:08;14.65;;;8.75;;
26774;SDS011;14362;51.902;7.626;2023-03-01T08:38:11;12.60;;;7.80;;
26774;SDS011;14362;51.902;7.626;2023-03-01T08:42:14;13.20;;;6.93;;
26774;SDS011;14362;51.902;7.626;2023-03-01T08:46:16;14.00;;;8.38;;
26774;SDS011;14362;51.902;7.626;2023-03-01T08:50:17;16.05;;;7.32;;
26774;SDS011;14362;51.902;7.626;2023-03-01T08:54:19;12.30;;;7.50;;
26774;SDS011;14362;51.902;7.626;2023-03-01T08:58:23;14.88;;;7.88;;
26774;SDS011;14362;51.902;7.626;2023-03-01T09:02:25;11.43;;;7.50;;
26774;SDS011;14362;51.902;7.626;2023-03-01T09:06:26;11.10;;;7.72;;
26774;SDS011;14362;51.902;7.626;2023-03-01T09:10:30;10.68;;;6.95;;
26774;SDS011;14362;51.902;7.626;2023-03-01T09:14:33;14.25;;;7.78;;
26774;SDS011;14362;51.902;7.626;2023-03-01T09:18:37;11.13;;;7.38;;
26774;SDS011;14362;51.902;7.626;2023-03-01T09:22:38;11.50;;;7.30;;
26774;SDS011;14362;51.902;7.626;2023-03-01T09:26:40;11.38;;;7.00;;
26774;SDS011;14362;51.902;7.626;2023-03-01T09:30:43;12.13;;;6.82;;
26774;SDS011;14362;51.902;7.626;2023-03-01T09:34:44;9.57;;;7.13;;
26774;SDS011;14362;51.902;7.626;2023-03-01T09:39:03;11.30;;;7.03;;
26774;SDS011;14362;51.902;7.626;2023-03-01T09:43:08;9.27;;;6.65;;
26774;SDS011;14362;51.902;7.626;2023-03-01T09:47:22;9.70;;;7.18;;
26774;SDS011;14362;51.902;7.626;2023-03-01T09:51:29;12.80;;;6.68;;
26774;SDS011;14362;51.902;7.626;2023-03-01T09:55:33;10.45;;;7.03;;
26774;SDS011;14362;51.902;7.626;2023-03-01T09:59:47;12.23;;;7.57;;
26774;SDS011;14362;51.902;7.626;2023-03-01T10:04:02;9.73;;;6.38;;
26774;SDS011;14362;51.902;7.626;2023-03-01T10:08:18;8.43;;;5.93;;
26774;SDS011;14362;51.902;7.626;2023-03-01T10:12:27;11.90;;;6.40;;
26774;SDS011;14362;51.902;7.626;2023-03-01T10:16:38;8.48;;;6.22;;
26774;SDS011;14362;51.902;7.626;2023-03-01T10:20:45;10.88;;;6.60;;
26774;SDS011;14362;51.902;7.626;2023-03-01T10:24:53;12.85;;;7.20;;
26774;SDS011;14362;51.902;7.626;2023-03-01T10:28:58;15.43;;;8.05;;
26774;SDS011;14362;51.902;7.626;2023-03-01T10:33:03;11.73;;;7.70;;
26774;SDS011;14362;51.902;7.626;2023-03-01T10:37:14;13.40;;;7.60;;
26774;SDS011;14362;51.902;7.626;2023-03-01T10:41:18;13.38;;;8.43;;
26774;SDS011;14362;51.902;7.626;2023-03-01T10:49:52;10.80;;;7.70;;
26774;SDS011;14362;51.902;7.626;2023-03-01T10:53:57;14.48;;;8.40;;
26774;SDS011;14362;51.902;7.626;2023-03-01T10:58:06;13.27;;;8.55;;
26774;SDS011;14362;51.902;7.626;2023-03-01T11:02:14;15.45;;;8.25;;
26774;SDS011;14362;51.902;7.626;2023-03-01T11:06:20;15.15;;;8.52;;
26774;SDS011;14362;51.902;7.626;2023-03-01T11:10:25;13.73;;;7.70;;
26774;SDS011;14362;51.902;7.626;2023-03-01T11:14:29;12.00;;;7.55;;
26774;SDS011;14362;51.902;7.626;2023-03-01T11:18:36;12.70;;;8.90;;
26774;SDS011;14362;51.902;7.626;2023-03-01T11:22:37;13.73;;;8.82;;
26774;SDS011;14362;51.902;7.626;2023-03-01T11:26:50;14.93;;;8.50;;
26774;SDS011;14362;51.902;7.626;2023-03-01T11:30:54;13.10;;;8.60;;
26774;SDS011;14362;51.902;7.626;2023-03-01T11:34:59;11.80;;;7.90;;
26774;SDS011;14362;51.902;7.626;2023-03-01T11:39:11;13.65;;;8.45;;
26774;SDS011;14362;51.902;7.626;2023-03-01T11:43:21;17.23;;;8.75;;
26774;SDS011;14362;51.902;7.626;2023-03-01T11:47:31;11.60;;;8.23;;
26774;SDS011;14362;51.902;7.626;2023-03-01T11:51:46;12.23;;;8.30;;
26774;SDS011;14362;51.902;7.626;2023-03-01T11:55:58;12.63;;;8.70;;
26774;SDS011;14362;51.902;7.626;2023-03-01T12:00:16;11.95;;;9.18;;
26774;SDS011;14362;51.902;7.626;2023-03-01T12:04:32;11.68;;;8.48;;
26774;SDS011;14362;51.902;7.626;2023-03-01T12:08:59;11.07;;;8.23;;
26774;SDS011;14362;51.902;7.626;2023-03-01T12:13:20;13.38;;;8.15;;
26774;SDS011;14362;51.902;7.626;2023-03-01T12:17:51;13.07;;;7.30;;
26774;SDS011;14362;51.902;7.626;2023-03-01T12:22:09;12.45;;;7.35;;
26774;SDS011;14362;51.902;7.626;2023-03-01T12:26:24;12.40;;;7.20;;
26774;SDS011;14362;51.902;7.626;2023-03-01T12:30:33;11.27;;;7.55;;
26774;SDS011;14362;51.902;7.626;2023-03-01T12:34:51;10.70;;;7.65;;
26774;SDS011;14362;51.902;7.626;2023-03-01T12:39:09;9.95;;;7.35;;
26774;SDS011;14362;51.902;7.626;2023-03-01T12:43:25;10.75;;;7.40;;
26774;SDS011;14362;51.902;7.626;2023-03-01T12:47:41;12.30;;;7.35;;
26774;SDS011;14362;51.902;7.626;2023-03-01T12:51:57;10.00;;;6.97;;
26774;SDS011;14362;51.902;7.626;2023-03-01T12:56:04;12.13;;;7.22;;
26774;SDS011;14362;51.902;7.626;2023-03-01T13:00:14;11.75;;;7.93;;
26774;SDS011;14362;51.902;7.626;2023-03-01T13:04:29;12.25;;;7.78;;
26774;SDS011;14362;51.902;7.626;2023-03-01T13:08:41;10.18;;;6.90;;
26774;SDS011;14362;51.902;7.626;2023-03-01T13:12:51;11.57;;;7.18;;
26774;SDS011;14362;51.902;7.626;2023-03-01T13:17:02;10.48;;;7.25;;
26774;SDS011;14362;51.902;7.626;2023-03-01T13:21:03;9.73;;;6.93;;
26774;SDS011;14362;51.902;7.626;2023-03-01T13:25:14;9.02;;;7.22;;
26774;SDS011;14362;51.902;7.626;2023-03-01T13:29:25;10.77;;;7.18;;
26774;SDS011;14362;51.902;7.626;2023-03-01T13:37:49;10.32;;;7.13;;
26774;SDS011;14362;51.902;7.626;2023-03-01T13:41:54;11.02;;;7.45;;
26774;SDS011;14362;51.902;7.626;2023-03-01T13:45:57;9.98;;;7.05;;
26774;SDS011;14362;51.902;7.626;2023-03-01T13:50:00;14.27;;;6.85;;
26774;SDS011;14362;51.902;7.626;2023-03-01T13:54:03;9.52;;;6.50;;
26774;SDS011;14362;51.902;7.626;2023-03-01T13:58:14;9.52;;;6.13;;
26774;SDS011;14362;51.902;7.626;2023-03-01T14:02:19;8.77;;;6.00;;
26774;SDS011;14362;51.902;7.626;2023-03-01T14:06:21;7.28;;;5.70;;
26774;SDS011;14362;51.902;7.626;2023-03-01T14:10:26;9.48;;;5.93;;
26774;SDS011;14362;51.902;7.626;2023-03-01T14:14:45;10.98;;;5.63;;
26774;SDS011;14362;51.902;7.626;2023-03-01T14:18:55;8.80;;;6.20;;
26774;SDS011;14362;51.902;7.626;2023-03-01T14:23:08;9.05;;;6.18;;
26774;SDS011;14362;51.902;7.626;2023-03-01T14:27:12;8.95;;;6.35;;
26774;SDS011;14362;51.902;7.626;2023-03-01T14:31:34;8.40;;;6.07;;
26774;SDS011;14362;51.902;7.626;2023-03-01T14:35:38;9.40;;;6.10;;
26774;SDS011;14362;51.902;7.626;2023-03-01T14:39:40;7.78;;;5.93;;
26774;SDS011;14362;51.902;7.626;2023-03-01T14:43:43;8.40;;;5.95;;
26774;SDS011;14362;51.902;7.626;2023-03-01T14:47:48;10.02;;;6.20;;
26774;SDS011;14362;51.902;7.626;2023-03-01T14:51:50;7.18;;;5.80;;
26774;SDS011;14362;51.902;7.626;2023-03-01T14:55:55;8.52;;;6.72;;
26774;SDS011;14362;51.902;7.626;2023-03-01T14:59:59;9.37;;;6.23;;
26774;SDS011;14362;51.902;7.626;2023-03-01T15:04:06;7.40;;;5.40;;
26774;SDS011;14362;51.902;7.626;2023-03-01T15:08:16;9.70;;;5.85;;
26774;SDS011;14362;51.902;7.626;2023-03-01T15:12:25;8.57;;;5.80;;
26774;SDS011;14362;51.902;7.626;2023-03-01T15:16:38;7.85;;;5.13;;
26774;SDS011;14362;51.902;7.626;2023-03-01T15:20:45;6.55;;;5.10;;
26774;SDS011;14362;51.902;7.626;2023-03-01T15:24:47;8.75;;;6.05;;
26774;SDS011;14362;51.902;7.626;2023-03-01T15:28:51;10.73;;;6.32;;
26774;SDS011;14362;51.902;7.626;2023-03-01T15:37:40;8.73;;;5.63;;
26774;SDS011;14362;51.902;7.626;2023-03-01T15:41:47;9.55;;;5.97;;
26774;SDS011;14362;51.902;7.626;2023-03-01T15:45:55;7.93;;;5.95;;
26774;SDS011;14362;51.902;7.626;2023-03-01T15:49:58;7.05;;;5.00;;
26774;SDS011;14362;51.902;7.626;2023-03-01T15:54:06;9.27;;;5.50;;
26774;SDS011;14362;51.902;7.626;2023-03-01T15:58:15;9.15;;;5.82;;
26774;SDS011;14362;51.902;7.626;2023-03-01T16:02:22;8.82;;;5.47;;
26774;SDS011;14362;51.902;7.626;2023-03-01T16:06:24;8.52;;;5.00;;
26774;SDS011;14362;51.902;7.626;2023-03-01T16:10:27;8.23;;;5.45;;
26774;SDS011;14362;51.902;7.626;2023-03-01T16:14:29;9.43;;;6.28;;
26774;SDS011;14362;51.902;7.626;2023-03-01T16:18:31;9.95;;;5.25;;
26774;SDS011;14362;51.902;7.626;2023-03-01T16:22:32;8.73;;;5.38;;
26774;SDS011;14362;51.902;7.626;2023-03-01T16:26:35;7.63;;;4.95;;
26774;SDS011;14362;51.902;7.626;2023-03-01T16:30:38;7.90;;;4.97;;
26774;SDS011;14362;51.902;7.626;2023-03-01T16:34:40;6.28;;;4.90;;
26774;SDS011;14362;51.902;7.626;2023-03-01T16:38:41;12.02;;;5.53;;
26774;SDS011;14362;51.902;7.626;2023-03-01T16:42:44;11.13;;;5.60;;
26774;SDS011;14362;51.902;7.626;2023-03-01T16:46:46;9.35;;;5.05;;
26774;SDS011;14362;51.902;7.626;2023-03-01T16:50:55;8.52;;;5.03;;
26774;SDS011;14362;51.902;7.626;2023-03-01T16:54:57;10.10;;;5.00;;
26774;SDS011;14362;51.902;7.626;2023-03-01T16:59:00;10.70;;;5.35;;
26774;SDS011;14362;51.902;7.626;2023-03-01T17:03:01;8.38;;;5.35;;
26774;SDS011;14362;51.902;7.626;2023-03-01T17:07:02;7.82;;;5.32;;
26774;SDS011;14362;51.902;7.626;2023-03-01T17:11:05;8.88;;;5.55;;
26774;SDS011;14362;51.902;7.626;2023-03-01T17:15:09;10.45;;;5.55;;
26774;SDS011;14362;51.902;7.626;2023-03-01T17:19:12;11.05;;;6.00;;
26774;SDS011;14362;51.902;7.626;2023-03-01T17:23:17;10.25;;;5.82;;
26774;SDS011;14362;51.902;7.626;2023-03-01T17:27:18;10.95;;;5.68;;
26774;SDS011;14362;51.902;7.626;2023-03-01T17:31:21;10.57;;;5.15;;
26774;SDS011;14362;51.902;7.626;2023-03-01T17:35:23;10.57;;;5.47;;
26774;SDS011;14362;51.902;7.626;2023-03-01T17:39:25;8.98;;;5.60;;
26774;SDS011;14362;51.902;7.626;2023-03-01T17:43:29;9.50;;;5.38;;
26774;SDS011;14362;51.902;7.626;2023-03-01T17:47:34;8.82;;;4.82;;
26774;SDS011;14362;51.902;7.626;2023-03-01T17:51:36;8.50;;;5.70;;
26774;SDS011;14362;51.902;7.626;2023-03-01T17:55:38;10.05;;;5.57;;
26774;SDS011;14362;51.902;7.626;2023-03-01T17:59:40;8.98;;;6.05;;
26774;SDS011;14362;51.902;7.626;2023-03-01T18:03:43;10.48;;;6.63;;
26774;SDS011;14362;51.902;7.626;2023-03-01T18:07:45;10.65;;;6.80;;
26774;SDS011;14362;51.902;7.626;2023-03-01T18:11:47;8.60;;;5.70;;
26774;SDS011;14362;51.902;7.626;2023-03-01T18:15:48;9.52;;;5.93;;
26774;SDS011;14362;51.902;7.626;2023-03-01T18:19:51;11.45;;;6.85;;
26774;SDS011;14362;51.902;7.626;2023-03-01T18:23:52;13.00;;;6.18;;
26774;SDS011;14362;51.902;7.626;2023-03-01T18:27:54;12.75;;;6.95;;
26774;SDS011;14362;51.902;7.626;2023-03-01T18:31:55;9.27;;;6.28;;
26774;SDS011;14362;51.902;7.626;2023-03-01T18:35:59;9.18;;;6.07;;
26774;SDS011;14362;51.902;7.626;2023-03-01T18:40:00;8.05;;;5.40;;
26774;SDS011;14362;51.902;7.626;2023-03-01T18:44:02;8.13;;;5.40;;
26774;SDS011;14362;51.902;7.626;2023-03-01T18:48:04;8.10;;;4.88;;
26774;SDS011;14362;51.902;7.626;2023-03-01T18:52:07;8.60;;;5.32;;
26774;SDS011;14362;51.902;7.626;2023-03-01T18:56:09;8.43;;;5.40;;
26774;SDS011;14362;51.902;7.626;2023-03-01T19:00:12;9.75;;;5.82;;
26774;SDS011;14362;51.902;7.626;2023-03-01T19:04:14;9.82;;;5.47;;
26774;SDS011;14362;51.902;7.626;2023-03-01T19:08:17;9.00;;;6.15;;
26774;SDS011;14362;51.902;7.626;2023-03-01T19:12:18;9.93;;;5.80;;
26774;SDS011;14362;51.902;7.626;2023-03-01T19:16:20;9.63;;;6.07;;
26774;SDS011;14362;51.902;7.626;2023-03-01T19:20:23;11.20;;;5.93;;
26774;SDS011;14362;51.902;7.626;2023-03-01T19:24:26;14.15;;;6.78;;
26774;SDS011;14362;51.902;7.626;2023-03-01T19:28:27;10.25;;;6.57;;
26774;SDS011;14362;51.902;7.626;2023-03-01T19:32:29;11.50;;;7.50;;
26774;SDS011;14362;51.902;7.626;2023-03-01T19:36:31;11.85;;;8.18;;
26774;SDS011;14362;51.902;7.626;2023-03-01T19:40:35;12.35;;;8.07;;
26774;SDS011;14362;51.902;7.626;2023-03-01T19:44:37;11.40;;;6.28;;
26774;SDS011;14362;51.902;7.626;2023-03-01T19:48:39;10.30;;;6.13;;
26774;SDS011;14362;51.902;7.626;2023-03-01T19:52:40;14.38;;;5.75;;
26774;SDS011;14362;51.902;7.626;2023-03-01T19:56:43;11.00;;;6.32;;
26774;SDS011;14362;51.902;7.626;2023-03-01T20:00:45;8.52;;;6.22;;
26774;SDS011;14362;51.902;7.626;2023-03-01T20:04:47;10.75;;;6.65;;
26774;SDS011;14362;51.902;7.626;2023-03-01T20:08:48;10.73;;;6.47;;
26774;SDS011;14362;51.902;7.626;2023-03-01T20:12:51;8.52;;;5.60;;
26774;SDS011;14362;51.902;7.626;2023-03-01T20:16:52;9.48;;;6.03;;
26774;SDS011;14362;51.902;7.626;2023-03-01T20:20:54;8.15;;;5.57;;
26774;SDS011;14362;51.902;7.626;2023-03-01T20:24:56;8.60;;;5.72;;
26774;SDS011;14362;51.902;7.626;2023-03-01T20:28:59;12.25;;;5.57;;
26774;SDS011;14362;51.902;7.626;2023-03-01T20:33:00;8.52;;;5.38;;
26774;SDS011;14362;51.902;7.626;2023-03-01T20:37:01;8.93;;;5.80;;
26774;SDS011;14362;51.902;7.626;2023-03-01T20:41:04;10.00;;;5.75;;
26774;SDS011;14362;51.902;7.626;2023-03-01T20:45:08;9.82;;;5.57;;
26774;SDS011;14362;51.902;7.626;2023-03-01T20:49:10;9.98;;;5.10;;
26774;SDS011;14362;51.902;7.626;2023-03-01T20:53:12;9.40;;;5.65;;
26774;SDS011;14362;51.902;7.626;2023-03-01T20:57:13;12.02;;;5.57;;
26774;SDS011;14362;51.902;7.626;2023-03-01T21:01:17;9.02;;;5.47;;
26774;SDS011;14362;51.902;7.626;2023-03-01T21:05:22;8.43;;;5.18;;
26774;SDS011;14362;51.902;7.626;2023-03-01T21:09:24;7.80;;;5.00;;
26774;SDS011;14362;51.902;7.626;2023-03-01T21:13:25;10.30;;;5.35;;
26774;SDS011;14362;51.902;7.626;2023-03-01T21:17:29;12.30;;;5.95;;
26774;SDS011;14362;51.902;7.626;2023-03-01T21:21:31;8.77;;;5.53;;
26774;SDS011;14362;51.902;7.626;2023-03-01T21:25:32;9.07;;;5.45;;
26774;SDS011;14362;51.902;7.626;2023-03-01T21:29:36;7.68;;;5.28;;
26774;SDS011;14362;51.902;7.626;2023-03-01T21:33:43;8.38;;;5.63;;
26774;SDS011;14362;51.902;7.626;2023-03-01T21:37:46;8.80;;;5.38;;
26774;SDS011;14362;51.902;7.626;2023-03-01T21:41:48;9.05;;;5.32;;
26774;SDS011;14362;51.902;7.626;2023-03-01T21:45:50;13.07;;;6.10;;
26774;SDS011;14362;51.902;7.626;2023-03-01T21:49:53;9.65;;;5.60;;
26774;SDS011;14362;51.902;7.626;2023-03-01T21:53:54;14.05;;;6.18;;
26774;SDS011;14362;51.902;7.626;2023-03-01T21:57:56;9.95;;;5.53;;
26774;SDS011;14362;51.902;7.626;2023-03-01T22:01:57;10.02;;;5.22;;
26774;SDS011;14362;51.902;7.626;2023-03-01T22:06:00;7.78;;;5.28;;
26774;SDS011;14362;51.902;7.626;2023-03-01T22:10:02;10.95;;;5.70;;
26774;SDS011;14362;51.902;7.626;2023-03-01T22:14:04;9.98;;;5.45;;
26774;SDS011;14362;51.902;7.626;2023-03-01T22:18:06;8.30;;;5.40;;
26774;SDS011;14362;51.902;7.626;2023-03-01T22:22:09;12.13;;;5.63;;
26774;SDS011;14362;51.902;7.626;2023-03-01T22:26:19;9.07;;;5.30;;
26774;SDS011;14362;51.902;7.626;2023-03-01T22:30:22;8.45;;;5.03;;
26774;SDS011;14362;51.902;7.626;2023-03-01T22:34:24;8.80;;;5.68;;
26774;SDS011;14362;51.902;7.626;2023-03-01T22:38:27;10.55;;;5.47;;
26774;SDS011;14362;51.902;7.626;2023-03-01T22:42:28;8.68;;;5.68;;
26774;SDS011;14362;51.902;7.626;2023-03-01T22:46:30;11.00;;;6.10;;
26774;SDS011;14362;51.902;7.626;2023-03-01T22:50:31;11.50;;;5.47;;
26774;SDS011;14362;51.902;7.626;2023-03-01T22:54:34;10.68;;;5.82;;
26774;SDS011;14362;51.902;7.626;2023-03-01T22:58:36;8.02;;;5.15;;
26774;SDS011;14362;51.902;7.626;2023-03-01T23:02:37;10.13;;;6.10;;
26774;SDS011;14362;51.902;7.626;2023-03-01T23:06:40;9.77;;;5.65;;
26774;SDS011;14362;51.902;7.626;2023-03-01T23:10:52;9.68;;;5.13;;
26774;SDS011;14362;51.902;7.626;2023-03-01T23:14:53;12.13;;;5.57;;
26774;SDS011;14362;51.902;7.626;2023-03-01T23:18:55;9.15;;;5.60;;
26774;SDS011;14362;51.902;7.626;2023-03-01T23:22:58;9.98;;;5.78;;
26774;SDS011;14362;51.902;7.626;2023-03-01T23:27:02;12.00;;;6.05;;
26774;SDS011;14362;51.902;7.626;2023-03-01T23:31:04;12.18;;;6.35;;
26774;SDS011;14362;51.902;7.626;2023-03-01T23:35:07;9.48;;;5.93;;
26774;SDS011;14362;51.902;7.626;2023-03-01T23:39:10;9.85;;;5.88;;
26774;SDS011;14362;51.902;7.626;2023-03-01T23:43:14;10.88;;;6.10;;
26774;SDS011;14362;51.902;7.626;2023-03-01T23:47:15;13.50;;;6.32;;
26774;SDS011;14362;51.902;7.626;2023-03-01T23:51:17;9.00;;;5.65;;
26774;SDS011;14362;51.902;7.626;2023-03-01T23:55:19;10.77;;;6.63;;
26774;SDS011;14362;51.902;7.626;2023-03-01T23:59:22;11.82;;;7.35;;
